sensor_id;sensor_type;location;lat;lon;timestamp;temperature;humidity
48589;DHT22;34369;51.174;6.738;2023-05-10T00:00:50;13.50;71.70
48589;DHT22;34369;51.174;6.738;2023-05-10T00:03:24;13.50;71.80
48589;DHT22;34369;51.174;6.738;2023-05-10T00:05:56;13.50;71.80
48589;DHT22;34369;51.174;6.738;2023-05-10T00:08:29;13.50;71.80
48589;DHT22;34369;51.174;6.738;2023-05-10T00:11:04;13.50;71.90
48589;DHT22;34369;51.174;6.738;2023-05-10T00:13:37;13.50;71.80
48589;DHT22;34369;51.174;6.738;2023-05-10T00:16:12;13.50;71.80
48589;DHT22;34369;51.174;6.738;2023-05-10T00:18:44;13.50;71.90
48589;DHT22;34369;51.174;6.738;2023-05-10T00:21:17;13.50;71.80
48589;DHT22;34369;51.174;6.738;2023-05-10T00:23:49;13.50;71.90
48589;DHT22;34369;51.174;6.738;2023-05-10T00:26:22;13.50;72.00
48589;DHT22;34369;51.174;6.738;2023-05-10T00:28:54;13.50;72.00
48589;DHT22;34369;51.174;6.738;2023-05-10T00:31:28;13.50;72.10
48589;DHT22;34369;51.174;6.738;2023-05-10T00:34:01;13.50;72.10
48589;DHT22;34369;51.174;6.738;2023-05-10T00:36:33;13.50;72.10
48589;DHT22;34369;51.174;6.738;2023-05-10T00:39:05;13.50;72.10
48589;DHT22;34369;51.174;6.738;2023-05-10T00:41:37;13.50;72.20
48589;DHT22;34369;51.174;6.738;2023-05-10T00:44:09;13.50;72.20
48589;DHT22;34369;51.174;6.738;2023-05-10T00:46:42;13.50;72.20
48589;DHT22;34369;51.174;6.738;2023-05-10T00:49:15;13.50;72.20
48589;DHT22;34369;51.174;6.738;2023-05-10T00:51:47;13.50;72.20
48589;DHT22;34369;51.174;6.738;2023-05-10T00:54:20;13.50;72.20
48589;DHT22;34369;51.174;6.738;2023-05-10T00:56:53;13.50;72.20
48589;DHT22;34369;51.174;6.738;2023-05-10T00:59:26;13.60;72.20
48589;DHT22;34369;51.174;6.738;2023-05-10T01:02:00;13.60;72.20
48589;DHT22;34369;51.174;6.738;2023-05-10T01:04:33;13.50;72.20
48589;DHT22;34369;51.174;6.738;2023-05-10T01:07:05;13.50;72.10
48589;DHT22;34369;51.174;6.738;2023-05-10T01:09:38;13.60;72.00
48589;DHT22;34369;51.174;6.738;2023-05-10T01:12:11;13.60;72.00
48589;DHT22;34369;51.174;6.738;2023-05-10T01:14:45;13.60;71.90
48589;DHT22;34369;51.174;6.738;2023-05-10T01:17:20;13.60;71.90
48589;DHT22;34369;51.174;6.738;2023-05-10T01:19:53;13.60;71.90
48589;DHT22;34369;51.174;6.738;2023-05-10T01:22:41;13.60;71.90
48589;DHT22;34369;51.174;6.738;2023-05-10T01:29:41;13.60;72.00
48589;DHT22;34369;51.174;6.738;2023-05-10T01:32:49;13.50;71.80
48589;DHT22;34369;51.174;6.738;2023-05-10T01:35:31;13.50;71.60
48589;DHT22;34369;51.174;6.738;2023-05-10T01:38:11;13.50;71.70
48589;DHT22;34369;51.174;6.738;2023-05-10T01:40:55;13.50;71.60
48589;DHT22;34369;51.174;6.738;2023-05-10T01:43:37;13.50;71.60
48589;DHT22;34369;51.174;6.738;2023-05-10T01:46:20;13.50;71.50
48589;DHT22;34369;51.174;6.738;2023-05-10T01:49:01;13.50;71.50
48589;DHT22;34369;51.174;6.738;2023-05-10T01:51:38;13.50;71.50
48589;DHT22;34369;51.174;6.738;2023-05-10T01:54:13;13.50;71.50
48589;DHT22;34369;51.174;6.738;2023-05-10T01:56:49;13.50;71.40
48589;DHT22;34369;51.174;6.738;2023-05-10T01:59:29;13.40;71.40
48589;DHT22;34369;51.174;6.738;2023-05-10T02:02:02;13.40;71.50
48589;DHT22;34369;51.174;6.738;2023-05-10T02:04:39;13.40;71.40
48589;DHT22;34369;51.174;6.738;2023-05-10T02:07:13;13.40;71.40
48589;DHT22;34369;51.174;6.738;2023-05-10T02:09:47;13.40;71.30
48589;DHT22;34369;51.174;6.738;2023-05-10T02:12:21;13.30;71.50
48589;DHT22;34369;51.174;6.738;2023-05-10T02:14:55;13.30;71.40
48589;DHT22;34369;51.174;6.738;2023-05-10T02:17:29;13.30;71.30
48589;DHT22;34369;51.174;6.738;2023-05-10T02:20:05;13.30;71.40
48589;DHT22;34369;51.174;6.738;2023-05-10T02:22:40;13.30;71.40
48589;DHT22;34369;51.174;6.738;2023-05-10T02:25:14;13.30;71.40
48589;DHT22;34369;51.174;6.738;2023-05-10T02:27:48;13.30;71.40
48589;DHT22;34369;51.174;6.738;2023-05-10T02:30:23;13.30;71.50
48589;DHT22;34369;51.174;6.738;2023-05-10T02:32:56;13.30;71.50
48589;DHT22;34369;51.174;6.738;2023-05-10T02:35:31;13.30;71.40
48589;DHT22;34369;51.174;6.738;2023-05-10T02:38:04;13.30;71.40
48589;DHT22;34369;51.174;6.738;2023-05-10T02:40:38;13.30;71.50
48589;DHT22;34369;51.174;6.738;2023-05-10T02:43:14;13.30;71.40
48589;DHT22;34369;51.174;6.738;2023-05-10T02:45:48;13.30;71.40
48589;DHT22;34369;51.174;6.738;2023-05-10T02:48:21;13.30;71.40
48589;DHT22;34369;51.174;6.738;2023-05-10T02:51:00;13.30;71.40
48589;DHT22;34369;51.174;6.738;2023-05-10T02:53:41;13.30;71.60
48589;DHT22;34369;51.174;6.738;2023-05-10T02:56:23;13.30;71.40
48589;DHT22;34369;51.174;6.738;2023-05-10T02:58:57;13.30;71.60
48589;DHT22;34369;51.174;6.738;2023-05-10T03:01:29;13.30;71.50
48589;DHT22;34369;51.174;6.738;2023-05-10T03:04:03;13.30;71.50
48589;DHT22;34369;51.174;6.738;2023-05-10T03:06:37;13.30;71.60
48589;DHT22;34369;51.174;6.738;2023-05-10T03:09:11;13.30;71.70
48589;DHT22;34369;51.174;6.738;2023-05-10T03:11:53;13.30;71.60
48589;DHT22;34369;51.174;6.738;2023-05-10T03:14:40;13.30;71.70
48589;DHT22;34369;51.174;6.738;2023-05-10T03:17:23;13.30;71.70
48589;DHT22;34369;51.174;6.738;2023-05-10T03:20:00;13.30;71.60
48589;DHT22;34369;51.174;6.738;2023-05-10T03:22:45;13.30;71.50
48589;DHT22;34369;51.174;6.738;2023-05-10T03:25:21;13.20;71.80
48589;DHT22;34369;51.174;6.738;2023-05-10T03:27:54;13.30;71.50
48589;DHT22;34369;51.174;6.738;2023-05-10T03:30:29;13.20;71.70
48589;DHT22;34369;51.174;6.738;2023-05-10T03:33:05;13.20;71.70
48589;DHT22;34369;51.174;6.738;2023-05-10T03:35:41;13.30;71.80
48589;DHT22;34369;51.174;6.738;2023-05-10T03:38:21;13.30;71.90
48589;DHT22;34369;51.174;6.738;2023-05-10T03:40:54;13.30;71.90
48589;DHT22;34369;51.174;6.738;2023-05-10T03:43:31;13.30;72.00
48589;DHT22;34369;51.174;6.738;2023-05-10T03:46:07;13.30;72.00
48589;DHT22;34369;51.174;6.738;2023-05-10T03:48:45;13.30;71.90
48589;DHT22;34369;51.174;6.738;2023-05-10T03:51:21;13.30;71.90
48589;DHT22;34369;51.174;6.738;2023-05-10T03:54:02;13.30;71.90
48589;DHT22;34369;51.174;6.738;2023-05-10T03:56:37;13.30;72.00
48589;DHT22;34369;51.174;6.738;2023-05-10T03:59:12;13.30;72.00
48589;DHT22;34369;51.174;6.738;2023-05-10T04:01:51;13.30;72.10
48589;DHT22;34369;51.174;6.738;2023-05-10T04:04:36;13.30;72.20
48589;DHT22;34369;51.174;6.738;2023-05-10T04:07:12;13.30;72.10
48589;DHT22;34369;51.174;6.738;2023-05-10T04:09:53;13.30;72.20
48589;DHT22;34369;51.174;6.738;2023-05-10T04:12:32;13.30;72.20
48589;DHT22;34369;51.174;6.738;2023-05-10T04:15:09;13.30;72.30
48589;DHT22;34369;51.174;6.738;2023-05-10T04:17:46;13.30;72.20
48589;DHT22;34369;51.174;6.738;2023-05-10T04:20:22;13.30;72.20
48589;DHT22;34369;51.174;6.738;2023-05-10T04:22:59;13.30;72.20
48589;DHT22;34369;51.174;6.738;2023-05-10T04:25:37;13.30;72.20
48589;DHT22;34369;51.174;6.738;2023-05-10T04:28:14;13.30;72.20
48589;DHT22;34369;51.174;6.738;2023-05-10T04:31:08;13.30;72.30
48589;DHT22;34369;51.174;6.738;2023-05-10T04:34:10;13.30;72.30
48589;DHT22;34369;51.174;6.738;2023-05-10T04:36:51;13.30;72.30
48589;DHT22;34369;51.174;6.738;2023-05-10T04:39:37;13.40;72.30
48589;DHT22;34369;51.174;6.738;2023-05-10T04:42:30;13.30;72.30
48589;DHT22;34369;51.174;6.738;2023-05-10T04:45:12;13.40;72.50
48589;DHT22;34369;51.174;6.738;2023-05-10T04:47:54;13.40;72.30
48589;DHT22;34369;51.174;6.738;2023-05-10T04:50:38;13.40;72.50
48589;DHT22;34369;51.174;6.738;2023-05-10T04:53:12;13.40;72.40
48589;DHT22;34369;51.174;6.738;2023-05-10T04:55:49;13.40;72.50
48589;DHT22;34369;51.174;6.738;2023-05-10T04:58:25;13.40;72.50
48589;DHT22;34369;51.174;6.738;2023-05-10T05:01:05;13.50;72.60
48589;DHT22;34369;51.174;6.738;2023-05-10T05:03:41;13.50;72.90
48589;DHT22;34369;51.174;6.738;2023-05-10T05:06:16;13.50;72.70
48589;DHT22;34369;51.174;6.738;2023-05-10T05:08:52;13.50;72.70
48589;DHT22;34369;51.174;6.738;2023-05-10T05:11:26;13.50;72.70
48589;DHT22;34369;51.174;6.738;2023-05-10T05:14:22;13.50;72.70
48589;DHT22;34369;51.174;6.738;2023-05-10T05:17:00;13.50;73.20
48589;DHT22;34369;51.174;6.738;2023-05-10T05:19:35;13.50;72.60
48589;DHT22;34369;51.174;6.738;2023-05-10T05:22:10;13.60;72.70
48589;DHT22;34369;51.174;6.738;2023-05-10T05:24:44;13.60;72.60
48589;DHT22;34369;51.174;6.738;2023-05-10T05:27:18;13.60;72.50
48589;DHT22;34369;51.174;6.738;2023-05-10T05:29:56;13.60;72.50
48589;DHT22;34369;51.174;6.738;2023-05-10T05:32:31;13.60;72.50
48589;DHT22;34369;51.174;6.738;2023-05-10T05:35:06;13.60;72.40
48589;DHT22;34369;51.174;6.738;2023-05-10T05:37:42;13.60;72.20
48589;DHT22;34369;51.174;6.738;2023-05-10T05:40:16;13.60;72.20
48589;DHT22;34369;51.174;6.738;2023-05-10T05:42:55;13.60;72.20
48589;DHT22;34369;51.174;6.738;2023-05-10T05:45:30;13.60;72.10
48589;DHT22;34369;51.174;6.738;2023-05-10T05:48:05;13.60;72.00
48589;DHT22;34369;51.174;6.738;2023-05-10T05:50:38;13.60;71.80
48589;DHT22;34369;51.174;6.738;2023-05-10T05:53:12;13.60;71.90
48589;DHT22;34369;51.174;6.738;2023-05-10T05:55:51;13.60;71.90
48589;DHT22;34369;51.174;6.738;2023-05-10T05:58:26;13.60;72.00
48589;DHT22;34369;51.174;6.738;2023-05-10T06:01:00;13.60;71.90
48589;DHT22;34369;51.174;6.738;2023-05-10T06:03:33;13.60;71.90
48589;DHT22;34369;51.174;6.738;2023-05-10T06:06:05;13.70;71.80
48589;DHT22;34369;51.174;6.738;2023-05-10T06:08:39;13.60;71.70
48589;DHT22;34369;51.174;6.738;2023-05-10T06:11:13;13.60;71.70
48589;DHT22;34369;51.174;6.738;2023-05-10T06:13:46;13.60;71.60
48589;DHT22;34369;51.174;6.738;2023-05-10T06:16:21;13.60;71.60
48589;DHT22;34369;51.174;6.738;2023-05-10T06:18:54;13.60;71.60
48589;DHT22;34369;51.174;6.738;2023-05-10T06:21:26;13.60;71.50
48589;DHT22;34369;51.174;6.738;2023-05-10T06:23:58;13.60;71.50
48589;DHT22;34369;51.174;6.738;2023-05-10T06:26:33;13.60;71.40
48589;DHT22;34369;51.174;6.738;2023-05-10T06:29:07;13.50;71.40
48589;DHT22;34369;51.174;6.738;2023-05-10T06:31:41;13.50;71.30
48589;DHT22;34369;51.174;6.738;2023-05-10T06:34:14;13.50;71.30
48589;DHT22;34369;51.174;6.738;2023-05-10T06:36:47;13.50;71.40
48589;DHT22;34369;51.174;6.738;2023-05-10T06:39:20;13.50;71.50
48589;DHT22;34369;51.174;6.738;2023-05-10T06:41:53;13.50;71.60
48589;DHT22;34369;51.174;6.738;2023-05-10T06:44:27;13.50;71.90
48589;DHT22;34369;51.174;6.738;2023-05-10T06:47:02;13.50;72.00
48589;DHT22;34369;51.174;6.738;2023-05-10T06:49:37;13.50;72.20
48589;DHT22;34369;51.174;6.738;2023-05-10T06:52:11;13.50;72.40
48589;DHT22;34369;51.174;6.738;2023-05-10T06:54:44;13.50;72.70
48589;DHT22;34369;51.174;6.738;2023-05-10T06:57:18;13.60;72.60
48589;DHT22;34369;51.174;6.738;2023-05-10T06:59:53;13.60;72.80
48589;DHT22;34369;51.174;6.738;2023-05-10T07:02:30;13.70;72.50
48589;DHT22;34369;51.174;6.738;2023-05-10T07:05:06;13.70;72.30
48589;DHT22;34369;51.174;6.738;2023-05-10T07:07:40;13.70;72.10
48589;DHT22;34369;51.174;6.738;2023-05-10T07:10:14;13.80;72.10
48589;DHT22;34369;51.174;6.738;2023-05-10T07:12:48;13.90;72.20
48589;DHT22;34369;51.174;6.738;2023-05-10T07:15:24;13.90;72.20
48589;DHT22;34369;51.174;6.738;2023-05-10T07:18:00;13.90;72.20
48589;DHT22;34369;51.174;6.738;2023-05-10T07:20:35;13.90;72.30
48589;DHT22;34369;51.174;6.738;2023-05-10T07:23:09;14.00;72.30
48589;DHT22;34369;51.174;6.738;2023-05-10T07:25:45;14.00;72.20
48589;DHT22;34369;51.174;6.738;2023-05-10T07:28:18;14.10;72.20
48589;DHT22;34369;51.174;6.738;2023-05-10T07:30:50;14.10;72.20
48589;DHT22;34369;51.174;6.738;2023-05-10T07:33:26;14.20;72.00
48589;DHT22;34369;51.174;6.738;2023-05-10T07:35:58;14.20;72.00
48589;DHT22;34369;51.174;6.738;2023-05-10T07:38:32;14.20;71.70
48589;DHT22;34369;51.174;6.738;2023-05-10T07:41:05;14.30;71.60
48589;DHT22;34369;51.174;6.738;2023-05-10T07:43:37;14.30;71.30
48589;DHT22;34369;51.174;6.738;2023-05-10T07:46:10;14.30;71.00
48589;DHT22;34369;51.174;6.738;2023-05-10T07:48:45;14.30;70.80
48589;DHT22;34369;51.174;6.738;2023-05-10T07:51:18;14.30;70.70
48589;DHT22;34369;51.174;6.738;2023-05-10T07:53:51;14.30;70.70
48589;DHT22;34369;51.174;6.738;2023-05-10T07:56:27;14.30;70.70
48589;DHT22;34369;51.174;6.738;2023-05-10T07:59:03;14.20;71.00
48589;DHT22;34369;51.174;6.738;2023-05-10T08:01:37;14.30;71.40
48589;DHT22;34369;51.174;6.738;2023-05-10T08:04:12;14.30;71.50
48589;DHT22;34369;51.174;6.738;2023-05-10T08:06:46;14.30;71.80
48589;DHT22;34369;51.174;6.738;2023-05-10T08:09:30;14.40;71.70
48589;DHT22;34369;51.174;6.738;2023-05-10T08:12:05;14.40;71.60
48589;DHT22;34369;51.174;6.738;2023-05-10T08:14:39;14.50;71.40
48589;DHT22;34369;51.174;6.738;2023-05-10T08:17:11;14.50;71.20
48589;DHT22;34369;51.174;6.738;2023-05-10T08:19:47;14.50;71.20
48589;DHT22;34369;51.174;6.738;2023-05-10T08:22:20;14.60;71.20
48589;DHT22;34369;51.174;6.738;2023-05-10T08:24:53;14.70;71.10
48589;DHT22;34369;51.174;6.738;2023-05-10T08:27:27;14.70;71.20
48589;DHT22;34369;51.174;6.738;2023-05-10T08:30:02;14.80;71.00
48589;DHT22;34369;51.174;6.738;2023-05-10T08:32:39;14.90;70.90
48589;DHT22;34369;51.174;6.738;2023-05-10T08:35:16;15.00;70.80
48589;DHT22;34369;51.174;6.738;2023-05-10T08:38:02;15.00;70.50
48589;DHT22;34369;51.174;6.738;2023-05-10T08:40:37;15.10;69.70
48589;DHT22;34369;51.174;6.738;2023-05-10T08:43:14;15.20;69.40
48589;DHT22;34369;51.174;6.738;2023-05-10T08:45:49;15.30;68.70
48589;DHT22;34369;51.174;6.738;2023-05-10T08:48:30;15.20;68.60
48589;DHT22;34369;51.174;6.738;2023-05-10T08:51:07;15.20;68.20
48589;DHT22;34369;51.174;6.738;2023-05-10T08:53:42;15.10;68.00
48589;DHT22;34369;51.174;6.738;2023-05-10T08:56:19;15.10;68.20
48589;DHT22;34369;51.174;6.738;2023-05-10T08:58:54;15.10;68.40
48589;DHT22;34369;51.174;6.738;2023-05-10T09:01:31;15.10;68.60
48589;DHT22;34369;51.174;6.738;2023-05-10T09:04:06;15.10;68.70
48589;DHT22;34369;51.174;6.738;2023-05-10T09:06:48;15.00;68.70
48589;DHT22;34369;51.174;6.738;2023-05-10T09:09:24;15.10;68.60
48589;DHT22;34369;51.174;6.738;2023-05-10T09:11:59;15.10;68.30
48589;DHT22;34369;51.174;6.738;2023-05-10T09:14:35;15.10;68.30
48589;DHT22;34369;51.174;6.738;2023-05-10T09:17:10;15.10;68.20
48589;DHT22;34369;51.174;6.738;2023-05-10T09:19:46;15.10;68.20
48589;DHT22;34369;51.174;6.738;2023-05-10T09:22:22;15.10;68.30
48589;DHT22;34369;51.174;6.738;2023-05-10T09:25:06;15.10;67.80
48589;DHT22;34369;51.174;6.738;2023-05-10T09:27:44;15.10;67.10
48589;DHT22;34369;51.174;6.738;2023-05-10T09:30:24;15.10;67.20
48589;DHT22;34369;51.174;6.738;2023-05-10T09:32:59;15.00;67.00
48589;DHT22;34369;51.174;6.738;2023-05-10T09:35:32;15.00;67.30
48589;DHT22;34369;51.174;6.738;2023-05-10T09:38:08;15.00;67.40
48589;DHT22;34369;51.174;6.738;2023-05-10T09:40:51;15.00;67.40
48589;DHT22;34369;51.174;6.738;2023-05-10T09:43:37;15.00;67.10
48589;DHT22;34369;51.174;6.738;2023-05-10T09:46:11;15.00;67.50
48589;DHT22;34369;51.174;6.738;2023-05-10T09:48:46;15.10;67.80
48589;DHT22;34369;51.174;6.738;2023-05-10T09:51:20;15.10;67.80
48589;DHT22;34369;51.174;6.738;2023-05-10T09:54:10;15.20;68.00
48589;DHT22;34369;51.174;6.738;2023-05-10T09:56:43;15.30;67.70
48589;DHT22;34369;51.174;6.738;2023-05-10T09:59:16;15.30;67.70
48589;DHT22;34369;51.174;6.738;2023-05-10T10:01:52;15.30;67.20
48589;DHT22;34369;51.174;6.738;2023-05-10T10:04:31;15.30;67.10
48589;DHT22;34369;51.174;6.738;2023-05-10T10:07:04;15.30;67.20
48589;DHT22;34369;51.174;6.738;2023-05-10T10:09:38;15.30;66.80
48589;DHT22;34369;51.174;6.738;2023-05-10T10:12:13;15.40;66.70
48589;DHT22;34369;51.174;6.738;2023-05-10T10:14:47;15.40;66.60
48589;DHT22;34369;51.174;6.738;2023-05-10T10:17:21;15.50;66.60
48589;DHT22;34369;51.174;6.738;2023-05-10T10:19:55;15.50;66.50
48589;DHT22;34369;51.174;6.738;2023-05-10T10:22:29;15.50;67.00
48589;DHT22;34369;51.174;6.738;2023-05-10T10:25:05;15.50;67.00
48589;DHT22;34369;51.174;6.738;2023-05-10T10:27:45;15.60;66.90
48589;DHT22;34369;51.174;6.738;2023-05-10T10:30:25;15.70;66.80
48589;DHT22;34369;51.174;6.738;2023-05-10T10:33:29;15.80;66.30
48589;DHT22;34369;51.174;6.738;2023-05-10T10:36:12;15.90;66.10
48589;DHT22;34369;51.174;6.738;2023-05-10T10:38:58;16.00;66.20
48589;DHT22;34369;51.174;6.738;2023-05-10T10:41:34;16.00;65.60
48589;DHT22;34369;51.174;6.738;2023-05-10T10:47:22;16.10;65.30
48589;DHT22;34369;51.174;6.738;2023-05-10T10:50:05;16.20;65.20
48589;DHT22;34369;51.174;6.738;2023-05-10T10:52:39;16.20;65.10
48589;DHT22;34369;51.174;6.738;2023-05-10T10:55:16;16.20;65.20
48589;DHT22;34369;51.174;6.738;2023-05-10T10:57:53;16.20;65.20
48589;DHT22;34369;51.174;6.738;2023-05-10T11:00:32;16.20;65.20
48589;DHT22;34369;51.174;6.738;2023-05-10T11:03:06;16.20;64.80
48589;DHT22;34369;51.174;6.738;2023-05-10T11:05:45;16.30;64.30
48589;DHT22;34369;51.174;6.738;2023-05-10T11:08:27;16.30;64.40
48589;DHT22;34369;51.174;6.738;2023-05-10T11:11:06;16.30;64.60
48589;DHT22;34369;51.174;6.738;2023-05-10T11:13:44;16.30;64.50
48589;DHT22;34369;51.174;6.738;2023-05-10T11:16:22;16.40;64.10
48589;DHT22;34369;51.174;6.738;2023-05-10T11:19:02;16.40;64.10
48589;DHT22;34369;51.174;6.738;2023-05-10T11:21:45;16.50;64.00
48589;DHT22;34369;51.174;6.738;2023-05-10T11:24:22;16.40;64.10
48589;DHT22;34369;51.174;6.738;2023-05-10T11:26:59;16.50;63.70
48589;DHT22;34369;51.174;6.738;2023-05-10T11:29:36;16.50;63.90
48589;DHT22;34369;51.174;6.738;2023-05-10T11:32:10;16.50;64.00
48589;DHT22;34369;51.174;6.738;2023-05-10T11:34:47;16.60;63.90
48589;DHT22;34369;51.174;6.738;2023-05-10T11:37:22;16.60;63.20
48589;DHT22;34369;51.174;6.738;2023-05-10T11:39:55;16.60;63.10
48589;DHT22;34369;51.174;6.738;2023-05-10T11:42:28;16.60;62.70
48589;DHT22;34369;51.174;6.738;2023-05-10T11:45:04;16.60;62.50
48589;DHT22;34369;51.174;6.738;2023-05-10T11:47:38;16.60;63.00
48589;DHT22;34369;51.174;6.738;2023-05-10T11:50:13;16.60;62.80
48589;DHT22;34369;51.174;6.738;2023-05-10T11:52:53;16.60;63.30
48589;DHT22;34369;51.174;6.738;2023-05-10T11:55:34;16.60;63.30
48589;DHT22;34369;51.174;6.738;2023-05-10T11:58:07;16.70;63.00
48589;DHT22;34369;51.174;6.738;2023-05-10T12:00:43;16.70;62.80
48589;DHT22;34369;51.174;6.738;2023-05-10T12:03:15;16.70;62.60
48589;DHT22;34369;51.174;6.738;2023-05-10T12:05:49;16.80;62.30
48589;DHT22;34369;51.174;6.738;2023-05-10T12:08:23;16.80;62.00
48589;DHT22;34369;51.174;6.738;2023-05-10T12:11:05;16.70;61.60
48589;DHT22;34369;51.174;6.738;2023-05-10T12:13:39;16.70;61.70
48589;DHT22;34369;51.174;6.738;2023-05-10T12:16:17;16.60;61.70
48589;DHT22;34369;51.174;6.738;2023-05-10T12:18:53;16.50;61.90
48589;DHT22;34369;51.174;6.738;2023-05-10T12:21:29;16.50;62.00
48589;DHT22;34369;51.174;6.738;2023-05-10T12:24:21;16.40;62.10
48589;DHT22;34369;51.174;6.738;2023-05-10T12:27:12;16.40;62.60
48589;DHT22;34369;51.174;6.738;2023-05-10T12:30:27;16.30;62.10
48589;DHT22;34369;51.174;6.738;2023-05-10T12:33:46;16.30;62.50
48589;DHT22;34369;51.174;6.738;2023-05-10T12:36:32;16.20;63.40
48589;DHT22;34369;51.174;6.738;2023-05-10T12:39:09;16.20;63.30
48589;DHT22;34369;51.174;6.738;2023-05-10T12:42:03;16.10;63.60
48589;DHT22;34369;51.174;6.738;2023-05-10T12:44:54;16.10;64.40
48589;DHT22;34369;51.174;6.738;2023-05-10T12:47:35;16.20;63.80
48589;DHT22;34369;51.174;6.738;2023-05-10T12:50:34;16.20;63.20
48589;DHT22;34369;51.174;6.738;2023-05-10T12:53:44;16.20;63.00
48589;DHT22;34369;51.174;6.738;2023-05-10T13:03:58;16.20;63.70
48589;DHT22;34369;51.174;6.738;2023-05-10T13:10:41;16.20;63.90
48589;DHT22;34369;51.174;6.738;2023-05-10T13:13:17;16.20;63.70
48589;DHT22;34369;51.174;6.738;2023-05-10T13:15:55;16.20;63.60
48589;DHT22;34369;51.174;6.738;2023-05-10T13:18:29;16.20;63.70
48589;DHT22;34369;51.174;6.738;2023-05-10T13:21:03;16.20;64.20
48589;DHT22;34369;51.174;6.738;2023-05-10T13:23:38;16.20;64.20
48589;DHT22;34369;51.174;6.738;2023-05-10T13:26:12;16.30;64.20
48589;DHT22;34369;51.174;6.738;2023-05-10T13:28:57;16.30;63.60
48589;DHT22;34369;51.174;6.738;2023-05-10T13:31:30;16.30;63.10
48589;DHT22;34369;51.174;6.738;2023-05-10T13:34:03;16.30;63.10
48589;DHT22;34369;51.174;6.738;2023-05-10T13:36:40;16.30;62.60
48589;DHT22;34369;51.174;6.738;2023-05-10T13:39:15;16.20;62.90
48589;DHT22;34369;51.174;6.738;2023-05-10T13:42:05;16.20;63.00
48589;DHT22;34369;51.174;6.738;2023-05-10T13:44:56;16.20;62.80
48589;DHT22;34369;51.174;6.738;2023-05-10T13:47:28;16.20;63.00
48589;DHT22;34369;51.174;6.738;2023-05-10T13:50:02;16.10;63.30
48589;DHT22;34369;51.174;6.738;2023-05-10T13:52:37;16.10;63.80
48589;DHT22;34369;51.174;6.738;2023-05-10T13:55:09;16.10;63.50
48589;DHT22;34369;51.174;6.738;2023-05-10T13:57:44;16.10;63.50
48589;DHT22;34369;51.174;6.738;2023-05-10T14:00:17;16.20;63.40
48589;DHT22;34369;51.174;6.738;2023-05-10T14:02:50;16.10;63.50
48589;DHT22;34369;51.174;6.738;2023-05-10T14:05:22;16.20;63.90
48589;DHT22;34369;51.174;6.738;2023-05-10T14:07:54;16.20;63.80
48589;DHT22;34369;51.174;6.738;2023-05-10T14:10:27;16.20;63.60
48589;DHT22;34369;51.174;6.738;2023-05-10T14:13:02;16.20;64.00
48589;DHT22;34369;51.174;6.738;2023-05-10T14:15:34;16.20;64.00
48589;DHT22;34369;51.174;6.738;2023-05-10T14:18:06;16.30;64.20
48589;DHT22;34369;51.174;6.738;2023-05-10T14:20:38;16.30;64.30
48589;DHT22;34369;51.174;6.738;2023-05-10T14:23:11;16.40;64.50
48589;DHT22;34369;51.174;6.738;2023-05-10T14:25:44;16.50;64.40
48589;DHT22;34369;51.174;6.738;2023-05-10T14:28:18;16.60;64.20
48589;DHT22;34369;51.174;6.738;2023-05-10T14:30:51;16.70;63.50
48589;DHT22;34369;51.174;6.738;2023-05-10T14:33:23;16.90;63.60
48589;DHT22;34369;51.174;6.738;2023-05-10T14:35:55;17.00;63.70
48589;DHT22;34369;51.174;6.738;2023-05-10T14:38:28;17.00;63.40
48589;DHT22;34369;51.174;6.738;2023-05-10T14:41:00;17.20;62.60
48589;DHT22;34369;51.174;6.738;2023-05-10T14:43:34;17.20;62.00
48589;DHT22;34369;51.174;6.738;2023-05-10T14:46:08;17.30;61.80
48589;DHT22;34369;51.174;6.738;2023-05-10T14:48:40;17.40;61.90
48589;DHT22;34369;51.174;6.738;2023-05-10T14:51:13;17.50;61.90
48589;DHT22;34369;51.174;6.738;2023-05-10T14:53:46;17.50;61.60
48589;DHT22;34369;51.174;6.738;2023-05-10T14:56:19;17.60;60.90
48589;DHT22;34369;51.174;6.738;2023-05-10T14:58:53;17.60;60.70
48589;DHT22;34369;51.174;6.738;2023-05-10T15:01:31;17.70;60.60
48589;DHT22;34369;51.174;6.738;2023-05-10T15:04:07;17.70;60.20
48589;DHT22;34369;51.174;6.738;2023-05-10T15:06:40;17.80;60.20
48589;DHT22;34369;51.174;6.738;2023-05-10T15:09:12;17.80;59.90
48589;DHT22;34369;51.174;6.738;2023-05-10T15:11:44;17.80;60.60
48589;DHT22;34369;51.174;6.738;2023-05-10T15:14:20;17.80;60.90
48589;DHT22;34369;51.174;6.738;2023-05-10T15:16:59;17.80;59.50
48589;DHT22;34369;51.174;6.738;2023-05-10T15:19:37;17.90;59.50
48589;DHT22;34369;51.174;6.738;2023-05-10T15:22:12;18.00;59.00
48589;DHT22;34369;51.174;6.738;2023-05-10T15:24:53;18.00;59.10
48589;DHT22;34369;51.174;6.738;2023-05-10T15:28:00;18.10;58.70
48589;DHT22;34369;51.174;6.738;2023-05-10T15:31:16;18.20;59.20
48589;DHT22;34369;51.174;6.738;2023-05-10T15:33:50;18.20;59.70
48589;DHT22;34369;51.174;6.738;2023-05-10T15:36:26;18.30;60.00
48589;DHT22;34369;51.174;6.738;2023-05-10T15:39:06;18.40;59.60
48589;DHT22;34369;51.174;6.738;2023-05-10T15:41:41;18.50;59.10
48589;DHT22;34369;51.174;6.738;2023-05-10T15:44:30;18.60;59.00
48589;DHT22;34369;51.174;6.738;2023-05-10T15:47:09;18.60;58.40
48589;DHT22;34369;51.174;6.738;2023-05-10T15:49:45;18.60;58.10
48589;DHT22;34369;51.174;6.738;2023-05-10T15:52:38;18.60;58.20
48589;DHT22;34369;51.174;6.738;2023-05-10T15:55:19;18.60;58.00
48589;DHT22;34369;51.174;6.738;2023-05-10T15:57:56;18.60;58.20
48589;DHT22;34369;51.174;6.738;2023-05-10T16:00:32;18.50;57.90
48589;DHT22;34369;51.174;6.738;2023-05-10T16:03:08;18.50;57.40
48589;DHT22;34369;51.174;6.738;2023-05-10T16:05:44;18.40;57.50
48589;DHT22;34369;51.174;6.738;2023-05-10T16:08:18;18.30;57.50
48589;DHT22;34369;51.174;6.738;2023-05-10T16:10:52;18.30;57.40
48589;DHT22;34369;51.174;6.738;2023-05-10T16:13:27;18.20;57.20
48589;DHT22;34369;51.174;6.738;2023-05-10T16:16:02;18.20;57.30
48589;DHT22;34369;51.174;6.738;2023-05-10T16:18:38;18.10;57.30
48589;DHT22;34369;51.174;6.738;2023-05-10T16:21:21;18.10;57.40
48589;DHT22;34369;51.174;6.738;2023-05-10T16:24:04;18.00;57.60
48589;DHT22;34369;51.174;6.738;2023-05-10T16:26:45;17.90;57.60
48589;DHT22;34369;51.174;6.738;2023-05-10T16:29:26;17.80;57.80
48589;DHT22;34369;51.174;6.738;2023-05-10T16:32:04;17.80;57.80
48589;DHT22;34369;51.174;6.738;2023-05-10T16:34:45;17.80;57.50
48589;DHT22;34369;51.174;6.738;2023-05-10T16:37:36;17.60;57.70
48589;DHT22;34369;51.174;6.738;2023-05-10T16:40:12;17.50;58.00
48589;DHT22;34369;51.174;6.738;2023-05-10T16:43:08;17.50;57.80
48589;DHT22;34369;51.174;6.738;2023-05-10T16:45:55;17.40;57.50
48589;DHT22;34369;51.174;6.738;2023-05-10T16:48:46;17.30;57.20
48589;DHT22;34369;51.174;6.738;2023-05-10T16:51:26;17.20;56.90